createdAt,value
2018-05-16T01:57:01.066Z,0.1
2018-05-16T01:59:01.185Z,0.2
2018-05-16T02:00:01.067Z,0.3
2018-05-16T02:02:01.199Z,0.4
2018-05-16T02:03:01.067Z,0.5
2018-05-16T02:05:01.095Z,0.6
2018-05-16T02:06:01.066Z,0.7
2018-05-16T02:08:01.302Z,0.9
2018-05-16T02:09:01.099Z,1.0
2018-05-16T02:10:01.062Z,1.1
2018-05-16T02:11:01.101Z,1.3
2018-05-16T02:12:01.063Z,1.4
2018-05-16T02:13:01.204Z,1.5
2018-05-16T02:14:01.066Z,1.7
2018-05-16T02:15:01.075Z,1.9
2018-05-16T02:16:01.101Z,2.1
2018-05-16T02:17:01.067Z,2.3
2018-05-16T02:18:01.218Z,2.6
2018-05-16T02:19:01.067Z,2.9
2018-05-16T02:20:01.125Z,3.3
2018-05-16T02:21:01.079Z,3.8
2018-05-16T02:22:01.061Z,4.3
2018-05-16T02:23:01.206Z,4.8
2018-05-16T02:24:01.068Z,5.4
2018-05-16T02:25:01.131Z,6.1
2018-05-16T02:26:01.073Z,6.9
2018-05-16T02:27:01.070Z,7.7
2018-05-16T02:28:01.203Z,8.7
2018-05-16T02:29:01.071Z,9.9
2018-05-16T02:30:01.135Z,11.1
2018-05-16T02:31:01.112Z,12.6
2018-05-16T02:32:01.121Z,14.2
2018-05-16T02:33:01.221Z,16.1
2018-05-16T02:35:01.055Z,18.5
2018-05-16T02:36:01.052Z,21.2
2018-05-16T02:37:01.078Z,24.3
2018-05-16T02:38:01.057Z,27.7
2018-05-16T02:39:01.196Z,31.6
2018-05-16T02:40:01.056Z,36.0
2018-05-16T02:41:01.061Z,40.9
2018-05-16T02:42:01.108Z,46.5
2018-05-16T02:43:01.095Z,52.7
2018-05-16T02:44:01.194Z,59.7
2018-05-16T02:45:01.051Z,67.5
2018-05-16T02:46:01.055Z,76.4
2018-05-16T02:47:01.081Z,86.4
2018-05-16T02:48:01.063Z,97.7
2018-05-16T02:49:01.228Z,110.5
2018-05-16T02:50:01.059Z,124.4
2018-05-16T02:51:01.056Z,140.0
2018-05-16T02:52:01.084Z,157.5
2018-05-16T02:53:01.056Z,177.1
2018-05-16T02:54:01.201Z,199.0
2018-05-16T02:55:01.099Z,223.5
2018-05-16T02:56:01.061Z,251.1
2018-05-16T02:57:01.091Z,281.9
2018-05-16T02:58:01.085Z,316.5
2018-05-16T02:59:01.240Z,355.1
2018-05-16T03:00:01.059Z,398.4
2018-05-16T03:01:01.062Z,447.0
2018-05-16T03:02:01.056Z,501.6
2018-05-16T03:03:01.124Z,562.6
2018-05-16T03:04:01.235Z,630.5
2018-05-16T03:05:01.058Z,706.1
2018-05-16T03:06:01.061Z,789.5
2018-05-16T03:07:01.061Z,880.8
2018-05-16T03:08:01.086Z,978.9
2018-05-16T03:09:01.249Z,1082.9
2018-05-16T03:10:01.061Z,1191.7
2018-05-16T03:11:01.065Z,1304.1
2018-05-16T03:12:01.102Z,1419.6
2018-05-16T03:13:01.117Z,1537.5
2018-05-16T03:14:01.228Z,1657.7
2018-05-16T03:15:01.092Z,1780.5
2018-05-16T03:16:01.098Z,1906.0
2018-05-16T03:17:01.069Z,2034.7
2018-05-16T03:18:01.094Z,2167.2
2018-05-16T03:19:01.238Z,2304.1
2018-05-16T03:20:01.064Z,2445.9
2018-05-16T03:21:01.068Z,2593.1
2018-05-16T03:22:01.100Z,2747.2
2018-05-16T03:23:01.166Z,2910.1
2018-05-16T03:24:01.213Z,3084.1
2018-05-16T03:25:01.074Z,3271.1
2018-05-16T03:26:01.099Z,3472.6
2018-05-16T03:27:01.069Z,3689.0
2018-05-16T03:28:01.102Z,3920.9
2018-05-16T03:29:01.246Z,4168.3
2018-05-16T03:30:01.066Z,4430.6
2018-05-16T03:31:01.107Z,4707.5
2018-05-16T03:32:01.066Z,4997.8
2018-05-16T03:33:01.129Z,5300.3
2018-05-16T03:34:01.211Z,5614.3
2018-05-16T03:35:01.066Z,5939.7
2018-05-16T03:36:01.068Z,6276.1
2018-05-16T03:37:01.068Z,6622.8
2018-05-16T03:39:01.292Z,7004.9
2018-05-16T03:40:01.090Z,7394.4
2018-05-16T03:41:01.058Z,7791.0
2018-05-16T03:42:01.079Z,8193.9
2018-05-16T03:43:01.061Z,8602.9
2018-05-16T03:44:01.256Z,9018.3
2018-05-16T03:45:01.054Z,9441.5
2018-05-16T03:46:01.067Z,9874.3
2018-05-16T03:47:01.057Z,10317.3
2018-05-16T03:48:01.059Z,10769.5
2018-05-16T03:49:01.337Z,11229.7
2018-05-16T03:50:01.063Z,11696.5
2018-05-16T03:51:01.065Z,12167.7
2018-05-16T03:52:01.122Z,12644.5
2018-05-16T03:53:01.086Z,13135.7
2018-05-16T03:54:01.263Z,13622.0
2018-05-16T03:55:01.057Z,14131.7
2018-05-16T03:56:01.087Z,14660.5
2018-05-16T03:57:01.090Z,15200.3
2018-05-16T03:58:01.092Z,15741.2
2018-05-16T03:59:01.256Z,16273.8
2018-05-16T04:00:01.093Z,16806.9
2018-05-16T04:01:01.060Z,17337.5
2018-05-16T04:02:01.097Z,17860.8
2018-05-16T04:03:01.059Z,18370.1
2018-05-16T04:04:01.267Z,18865.9
2018-05-16T04:05:01.090Z,19352.0
2018-05-16T04:06:01.097Z,19832.4
2018-05-16T04:07:01.060Z,20302.8
2018-05-16T04:08:01.099Z,20753.5
2018-05-16T04:09:01.307Z,21175.7
2018-05-16T04:10:01.091Z,21563.3
2018-05-16T04:11:01.093Z,21926.4
2018-05-16T04:12:01.069Z,22275.2
2018-05-16T04:13:01.091Z,22617.1
2018-05-16T04:14:01.262Z,22966.3
2018-05-16T04:15:06.095Z,23321.1
2018-05-16T04:16:01.062Z,23673.5
2018-05-16T04:17:01.106Z,24024.5
2018-05-16T04:18:01.061Z,24376.9
2018-05-16T04:19:01.281Z,24695.1
2018-05-16T04:20:01.097Z,24977.1
2018-05-16T04:21:01.063Z,25224.6
2018-05-16T04:22:01.103Z,25444.8
2018-05-16T04:23:01.059Z,25651.3
2018-05-16T04:24:01.276Z,25843.3
2018-05-16T04:25:01.132Z,26025.1
2018-05-16T04:26:01.093Z,26205.9
2018-05-16T04:27:01.100Z,26378.0
2018-05-16T04:28:01.097Z,26571.8
2018-05-16T04:29:01.297Z,26802.9
2018-05-16T04:30:01.096Z,27078.1
2018-05-16T04:31:01.091Z,27421.8
2018-05-16T04:32:01.098Z,27843.8
2018-05-16T04:33:01.098Z,28363.5
2018-05-16T04:34:01.274Z,29018.1
2018-05-16T04:35:01.102Z,29792.2
2018-05-16T04:36:01.104Z,30672.8
2018-05-16T04:37:01.099Z,31651.2
2018-05-16T04:38:01.067Z,32694.3
2018-05-16T04:39:01.340Z,33795.1
2018-05-16T04:40:01.093Z,34942.7
2018-05-16T04:41:01.098Z,36056.9
2018-05-16T04:42:01.104Z,37182.1
2018-05-16T04:43:01.106Z,38319.6
2018-05-16T04:44:01.276Z,39492.9
2018-05-16T04:45:01.075Z,40714.3
2018-05-16T04:46:01.105Z,41987.9
2018-05-16T04:47:01.099Z,43302.9
2018-05-16T04:48:01.103Z,44599.9
2018-05-16T04:49:01.294Z,45825.8
2018-05-16T04:50:01.095Z,47001.5
2018-05-16T04:51:01.103Z,48087.2
2018-05-16T04:52:01.103Z,49064.6
2018-05-16T04:53:01.104Z,49994.1
2018-05-16T04:54:01.343Z,50921.3
2018-05-16T04:55:01.141Z,51663.0
2018-05-16T04:56:01.072Z,52842.6
2018-05-16T04:57:01.118Z,54204.3
2018-05-16T04:58:01.168Z,54854.9
2018-05-16T04:59:01.278Z,55416.3
2018-05-16T05:00:01.102Z,55894.7
2018-05-16T05:01:01.140Z,56289.7
2018-05-16T05:02:01.106Z,56576.1
2018-05-16T05:03:01.103Z,56815.3
2018-05-16T05:04:01.288Z,57095.6
2018-05-16T05:05:01.103Z,57247.5
2018-05-16T05:06:01.101Z,57717.3
2018-05-16T05:07:01.072Z,57757.5
2018-05-16T05:08:01.107Z,57866.9
2018-05-16T05:09:01.344Z,57613.8
2018-05-16T05:10:01.110Z,57462.5
2018-05-16T05:12:01.062Z,56951.5
2018-05-16T05:13:01.061Z,56276.3
2018-05-16T05:14:01.262Z,56286.7
2018-05-16T05:15:01.062Z,56282.0
2018-05-16T05:16:01.067Z,56174.9
2018-05-16T05:17:01.093Z,55922.4
2018-05-16T05:18:01.093Z,55516.6
2018-05-16T05:19:01.271Z,54891.7
2018-05-16T05:20:01.095Z,54012.9
2018-05-16T05:21:01.090Z,53099.9
2018-05-16T05:22:01.068Z,51876.9
2018-05-16T05:23:01.100Z,51242.1
2018-05-16T05:24:01.353Z,50742.3
2018-05-16T05:25:01.078Z,50803.6
2018-05-16T05:26:01.062Z,51112.5
2018-05-16T05:27:01.107Z,51494.6
2018-05-16T05:28:01.101Z,51874.5
2018-05-16T05:29:01.287Z,52209.6
2018-05-16T05:30:01.098Z,52500.1
2018-05-16T05:31:01.096Z,52811.1
2018-05-16T05:32:01.100Z,53197.4
2018-05-16T05:33:01.102Z,53690.7
2018-05-16T05:34:01.283Z,54304.9
2018-05-16T05:35:01.074Z,55026.5
2018-05-16T05:36:01.076Z,55844.9
2018-05-16T05:37:01.104Z,56709.7
2018-05-16T05:38:01.073Z,57533.3
2018-05-16T05:39:01.300Z,58235.7
2018-05-16T05:40:01.102Z,58764.9
2018-05-16T05:41:01.074Z,59120.7
2018-05-16T05:42:01.105Z,59297.2
2018-05-16T05:43:01.106Z,59328.9
2018-05-16T05:44:01.280Z,59227.3
2018-05-16T05:45:01.114Z,58987.7
2018-05-16T05:46:01.109Z,58580.8
2018-05-16T05:47:01.101Z,57983.9
2018-05-16T05:48:01.073Z,57218.9
2018-05-16T05:49:01.284Z,56342.9
2018-05-16T05:50:01.104Z,55386.4
2018-05-16T05:51:01.100Z,54319.9
2018-05-16T05:52:01.073Z,53092.4
2018-05-16T05:53:01.106Z,51687.1
2018-05-16T05:54:01.284Z,50140.9
2018-05-16T05:55:01.107Z,48530.9
2018-05-16T05:56:01.078Z,46961.9
2018-05-16T05:57:01.073Z,45586.4
2018-05-16T05:58:01.072Z,44493.5
2018-05-16T05:59:01.305Z,43859.9
2018-05-16T06:00:01.172Z,43739.2
2018-05-16T06:01:01.070Z,44160.7
2018-05-16T06:02:01.070Z,45087.1
2018-05-16T06:03:01.136Z,46331.6
2018-05-16T06:04:01.244Z,47732.1
2018-05-16T06:05:01.071Z,49270.5
2018-05-16T06:06:01.109Z,50930.1
2018-05-16T06:07:01.080Z,52690.3
2018-05-16T06:08:01.144Z,54526.4
2018-05-16T06:09:01.283Z,56395.5
2018-05-16T06:10:01.102Z,58242.0
2018-05-16T06:11:01.104Z,60004.2
2018-05-16T06:12:01.074Z,61612.7
2018-05-16T06:13:01.145Z,63040.2
2018-05-16T06:14:01.248Z,64156.1
2018-05-16T06:15:01.109Z,64945.0
2018-05-16T06:16:01.109Z,65394.9
2018-05-16T06:17:01.110Z,65535.0
2018-05-16T06:30:01.189Z,65535.0
2018-05-16T06:45:01.123Z,65535.0
2018-05-16T07:00:01.198Z,65535.0
2018-05-16T07:15:01.138Z,65535.0
2018-05-16T07:30:01.449Z,65535.0
2018-05-16T07:45:01.090Z,65535.0
2018-05-16T08:00:01.131Z,65535.0
2018-05-16T08:15:01.135Z,65535.0
2018-05-16T08:30:01.279Z,65535.0
2018-05-16T08:45:01.133Z,65535.0
2018-05-16T09:00:01.273Z,65535.0
2018-05-16T09:15:01.127Z,65535.0
2018-05-16T09:30:01.142Z,65535.0
2018-05-16T09:45:01.089Z,65535.0
2018-05-16T10:00:01.296Z,65535.0
2018-05-16T10:15:01.129Z,65535.0
2018-05-16T10:30:01.306Z,65535.0
2018-05-16T10:45:01.131Z,65535.0
2018-05-16T11:00:01.160Z,65535.0
2018-05-16T11:15:01.120Z,65535.0
2018-05-16T11:30:01.259Z,65535.0
2018-05-16T11:45:01.130Z,65535.0
2018-05-16T12:00:01.347Z,65535.0
2018-05-16T12:15:01.376Z,65535.0
2018-05-16T12:30:01.189Z,65535.0
2018-05-16T12:45:01.125Z,65535.0
2018-05-16T13:00:01.221Z,65535.0
2018-05-16T13:15:01.132Z,65535.0
2018-05-16T13:30:01.196Z,65535.0
2018-05-16T13:45:01.136Z,65535.0
2018-05-16T14:00:01.230Z,65535.0
2018-05-16T14:15:01.385Z,65535.0
2018-05-16T14:30:01.321Z,65535.0
2018-05-16T14:45:06.341Z,65535.0
2018-05-16T15:00:01.180Z,65535.0
2018-05-16T15:15:01.105Z,65535.0
2018-05-16T15:30:01.154Z,65535.0
2018-05-16T15:45:01.067Z,65535.0
2018-05-16T16:00:01.201Z,65535.0
2018-05-16T16:15:01.069Z,65535.0
2018-05-16T16:30:01.222Z,65535.0
2018-05-16T16:42:01.361Z,65526.4
2018-05-16T16:43:01.087Z,65464.3
2018-05-16T16:44:01.084Z,65346.2
2018-05-16T16:45:01.083Z,65168.1
2018-05-16T16:46:01.119Z,64895.9
2018-05-16T16:47:01.225Z,64499.9
2018-05-16T16:48:01.082Z,63968.7
2018-05-16T16:49:01.057Z,63311.5
2018-05-16T16:50:01.087Z,62553.5
2018-05-16T16:51:01.088Z,61717.9
2018-05-16T16:52:01.236Z,60807.7
2018-05-16T16:53:01.057Z,59813.0
2018-05-16T16:54:01.100Z,58743.6
2018-05-16T16:55:01.087Z,57618.9
2018-05-16T16:56:01.129Z,56465.1
2018-05-16T16:57:01.236Z,55323.0
2018-05-16T16:58:01.089Z,54225.9
2018-05-16T16:59:01.100Z,53101.0
2018-05-16T17:00:01.154Z,51953.1
2018-05-16T17:01:01.093Z,50881.3
2018-05-16T17:02:01.229Z,49939.2
2018-05-16T17:03:01.090Z,49151.1
2018-05-16T17:04:01.092Z,48479.8
2018-05-16T17:05:01.120Z,47880.1
2018-05-16T17:06:01.098Z,47328.5
2018-05-16T17:07:01.313Z,46866.1
2018-05-16T17:08:01.093Z,46500.3
2018-05-16T17:09:01.096Z,46212.5
2018-05-16T17:10:01.089Z,45938.3
2018-05-16T17:11:01.096Z,45654.8
2018-05-16T17:12:01.288Z,45343.6
2018-05-16T17:13:01.101Z,45021.3
2018-05-16T17:14:01.151Z,44765.0
2018-05-16T17:15:01.092Z,44576.0
2018-05-16T17:16:01.102Z,44388.7
2018-05-16T17:17:01.260Z,44178.9
2018-05-16T17:18:01.093Z,43930.7
2018-05-16T17:19:01.069Z,43670.3
2018-05-16T17:20:01.095Z,43423.8
2018-05-16T17:21:01.097Z,43189.5
2018-05-16T17:22:01.266Z,42933.0
2018-05-16T17:23:01.107Z,42668.3
2018-05-16T17:24:01.091Z,42379.5
2018-05-16T17:25:01.091Z,42095.9
2018-05-16T17:26:01.094Z,41829.7
2018-05-16T17:27:01.268Z,41564.9
2018-05-16T17:28:01.094Z,41305.7
2018-05-16T17:29:01.073Z,41040.1
2018-05-16T17:30:01.099Z,40778.2
2018-05-16T17:31:01.092Z,40515.7
2018-05-16T17:32:01.268Z,40251.0
2018-05-16T17:33:01.104Z,39978.1
2018-05-16T17:34:01.100Z,39708.9
2018-05-16T17:35:01.094Z,39426.5
2018-05-16T17:36:01.102Z,39139.3
2018-05-16T17:38:01.086Z,38815.7
2018-05-16T17:39:01.077Z,38465.1
2018-05-16T17:40:01.079Z,38113.3
2018-05-16T17:41:01.082Z,37777.3
2018-05-16T17:42:01.320Z,37437.6
2018-05-16T17:43:01.054Z,37103.7
2018-05-16T17:44:01.079Z,36768.8
2018-05-16T17:45:01.079Z,36444.2
2018-05-16T17:46:01.114Z,36115.3
2018-05-16T17:47:01.270Z,35787.4
2018-05-16T17:48:01.084Z,35460.3
2018-05-16T17:49:01.077Z,35136.3
2018-05-16T17:50:01.055Z,34806.2
2018-05-16T17:51:01.087Z,34481.7
2018-05-16T17:52:01.251Z,34157.6
2018-05-16T17:53:01.052Z,33855.0
2018-05-16T17:54:01.084Z,33556.1
2018-05-16T17:55:01.079Z,33257.8
2018-05-16T17:56:01.088Z,32959.3
2018-05-16T17:57:01.254Z,32665.7
2018-05-16T17:58:01.084Z,32368.3
2018-05-16T17:59:01.083Z,32065.6
2018-05-16T18:00:01.090Z,31754.4
2018-05-16T18:01:01.199Z,31434.8
2018-05-16T18:02:01.279Z,31106.3
2018-05-16T18:03:01.057Z,30769.3
2018-05-16T18:04:01.083Z,30431.1
2018-05-16T18:05:01.082Z,30089.7
2018-05-16T18:06:01.087Z,29743.8
2018-05-16T18:07:01.323Z,29393.3
2018-05-16T18:08:01.087Z,29038.4
2018-05-16T18:09:01.084Z,28676.4
2018-05-16T18:10:01.093Z,28309.0
2018-05-16T18:11:01.090Z,27935.7
2018-05-16T18:12:01.285Z,27557.7
2018-05-16T18:13:01.146Z,27173.1
2018-05-16T18:14:01.061Z,26783.8
2018-05-16T18:15:01.091Z,26393.2
2018-05-16T18:16:01.088Z,26004.2
2018-05-16T18:17:01.262Z,25617.8
2018-05-16T18:18:01.090Z,25235.5
2018-05-16T18:19:01.123Z,24854.7
2018-05-16T18:20:01.090Z,24476.0
2018-05-16T18:21:01.096Z,24099.9
2018-05-16T18:22:01.231Z,23726.2
2018-05-16T18:23:01.099Z,23355.3
2018-05-16T18:24:01.089Z,22988.1
2018-05-16T18:25:01.121Z,22624.8
2018-05-16T18:26:01.088Z,22264.5
2018-05-16T18:27:01.239Z,21906.1
2018-05-16T18:28:01.107Z,21551.0
2018-05-16T18:29:01.091Z,21195.8
2018-05-16T18:30:01.118Z,20839.9
2018-05-16T18:31:01.090Z,20482.1
2018-05-16T18:32:01.297Z,20120.9
2018-05-16T18:33:01.095Z,19757.7
2018-05-16T18:34:01.092Z,19393.7
2018-05-16T18:35:01.123Z,19029.9
2018-05-16T18:36:01.093Z,18665.9
2018-05-16T18:38:01.079Z,18276.4
2018-05-16T18:39:01.074Z,17886.0
2018-05-16T18:40:06.106Z,17495.4
2018-05-16T18:41:01.087Z,17104.3
2018-05-16T18:42:01.215Z,16714.3
2018-05-16T18:43:01.076Z,16324.8
2018-05-16T18:44:01.076Z,15936.6
2018-05-16T18:45:01.079Z,15550.7
2018-05-16T18:46:01.080Z,15166.5
2018-05-16T18:47:01.352Z,14784.5
2018-05-16T18:48:01.079Z,14404.7
2018-05-16T18:49:01.077Z,14026.2
2018-05-16T18:50:01.049Z,13650.4
2018-05-16T18:51:01.082Z,13276.9
2018-05-16T18:52:01.221Z,12905.6
2018-05-16T18:53:01.076Z,12561.8
2018-05-16T18:54:01.057Z,12220.3
2018-05-16T18:55:01.089Z,11879.9
2018-05-16T18:56:01.250Z,11541.2
2018-05-16T18:57:01.231Z,11204.3
2018-05-16T18:58:01.078Z,10868.4
2018-05-16T18:59:01.078Z,10534.3
2018-05-16T19:00:01.084Z,10203.5
2018-05-16T19:01:01.055Z,9876.9
2018-05-16T19:02:01.290Z,9553.1
2018-05-16T19:03:01.082Z,9232.5
2018-05-16T19:04:01.093Z,8913.6
2018-05-16T19:05:01.085Z,8596.0
2018-05-16T19:06:01.087Z,8279.9
2018-05-16T19:07:01.229Z,7965.7
2018-05-16T19:08:01.094Z,7652.7
2018-05-16T19:09:01.086Z,7341.7
2018-05-16T19:10:01.093Z,7033.0
2018-05-16T19:11:01.113Z,6726.4
2018-05-16T19:12:01.251Z,6421.5
2018-05-16T19:13:01.084Z,6119.4
2018-05-16T19:14:01.055Z,5821.4
2018-05-16T19:15:01.082Z,5527.6
2018-05-16T19:16:01.116Z,5238.1
2018-05-16T19:17:01.296Z,4955.0
2018-05-16T19:18:01.085Z,4679.0
2018-05-16T19:19:01.085Z,4411.4
2018-05-16T19:20:01.081Z,4151.7
2018-05-16T19:21:01.059Z,3900.5
2018-05-16T19:22:01.249Z,3658.0
2018-05-16T19:23:01.084Z,3425.3
2018-05-16T19:24:01.088Z,3202.8
2018-05-16T19:25:01.084Z,2990.9
2018-05-16T19:26:01.081Z,2790.1
2018-05-16T19:27:01.281Z,2600.2
2018-05-16T19:28:01.083Z,2420.9
2018-05-16T19:29:01.055Z,2251.5
2018-05-16T19:30:01.083Z,2090.9
2018-05-16T19:31:01.092Z,1938.2
2018-05-16T19:32:01.260Z,1793.0
2018-05-16T19:33:01.084Z,1655.6
2018-05-16T19:34:01.094Z,1526.1
2018-05-16T19:35:01.088Z,1405.1
2018-05-16T19:36:01.083Z,1292.4
2018-05-16T19:37:01.256Z,1187.5
2018-05-16T19:38:01.091Z,1090.1
2018-05-16T19:39:01.086Z,999.3
2018-05-16T19:40:01.084Z,914.5
2018-05-16T19:41:01.092Z,835.5
2018-05-16T19:42:01.255Z,762.1
2018-05-16T19:43:01.084Z,694.0
2018-05-16T19:44:01.058Z,631.0
2018-05-16T19:45:01.089Z,572.7
2018-05-16T19:46:01.117Z,519.0
2018-05-16T19:47:01.269Z,469.5
2018-05-16T19:48:01.062Z,424.6
2018-05-16T19:49:01.088Z,383.5
2018-05-16T19:50:01.107Z,345.8
2018-05-16T19:51:01.097Z,311.4
2018-05-16T19:52:01.272Z,280.1
2018-05-16T19:53:01.158Z,251.7
2018-05-16T19:54:01.092Z,225.9
2018-05-16T19:55:01.091Z,202.6
2018-05-16T19:56:01.105Z,181.6
2018-05-16T19:57:01.272Z,162.6
2018-05-16T19:58:01.092Z,145.5
2018-05-16T19:59:01.091Z,130.1
2018-05-16T20:00:01.089Z,116.4
2018-05-16T20:01:01.063Z,104.1
2018-05-16T20:02:01.330Z,93.1
2018-05-16T20:03:01.089Z,82.6
2018-05-16T20:04:01.062Z,73.2
2018-05-16T20:05:01.061Z,64.9
2018-05-16T20:06:01.072Z,57.5
2018-05-16T20:07:01.274Z,50.9
2018-05-16T20:08:01.114Z,45.1
2018-05-16T20:09:01.099Z,39.9
2018-05-16T20:10:01.096Z,35.3
2018-05-16T20:11:01.066Z,31.3
2018-05-16T20:12:01.317Z,27.7
2018-05-16T20:13:01.093Z,24.5
2018-05-16T20:14:01.097Z,21.7
2018-05-16T20:15:01.096Z,19.1
2018-05-16T20:16:01.071Z,16.9
2018-05-16T20:17:01.326Z,15.0
2018-05-16T20:19:01.150Z,13.2
2018-05-16T20:20:01.083Z,11.7
2018-05-16T20:21:01.092Z,10.3
2018-05-16T20:22:01.087Z,9.1
2018-05-16T20:23:01.258Z,8.0
2018-05-16T20:24:01.083Z,7.0
2018-05-16T20:25:01.085Z,6.1
2018-05-16T20:26:01.084Z,5.4
2018-05-16T20:27:01.084Z,4.7
2018-05-16T20:28:01.268Z,4.2
2018-05-16T20:29:01.056Z,3.7
2018-05-16T20:30:01.086Z,3.2
2018-05-16T20:31:01.062Z,2.8
2018-05-16T20:32:01.088Z,2.5
2018-05-16T20:33:01.282Z,2.1
2018-05-16T20:34:01.096Z,1.9
2018-05-16T20:35:01.098Z,1.7
2018-05-16T20:36:01.088Z,1.6
2018-05-16T20:37:01.088Z,1.5
2018-05-16T20:38:01.271Z,1.3
2018-05-16T20:40:01.330Z,1.1
2018-05-16T20:41:01.066Z,1.0
2018-05-16T20:42:01.099Z,0.9
2018-05-16T20:43:01.277Z,0.7
2018-05-16T20:45:01.102Z,0.6
2018-05-16T20:46:01.093Z,0.5
2018-05-16T20:48:01.279Z,0.4
2018-05-16T20:49:01.098Z,0.3
2018-05-16T20:51:01.066Z,0.2
2018-05-16T20:52:01.061Z,0.1
